• Join FlightAware (Why Join?)
  • Login
  • US Flag 
09:32PM EDT


 

Airport Tracker/Info


-or-


 

Live Flight TrackerFlight Track Log ✈ DAL6035 ✈ 26-Apr-2013 ✈ KLGA - KMHT

Flight Track Log - Related Links

Times and Time Zones

All times are in EDT time to prevent confusion due to time zone crossing. See the DAL6035 flight status page for this flight to view local times or setup timezone preferences in your user account.

Time Position Orientation Groundspeed Altitude Reporting Facility
EDT Latitude Longitude Course Direction KTS MPH feet Rate Location/Type
12:30PM 40.8167 -73.8333 27° Northeast 178 205 2,300  Level New York TRACON
12:32PM 41.0265 -73.6597 28° Northeast  Level FlightAware Approximate
12:32PM 40.9361 -73.7533 27° Northeast 232 267 6,400  Level Boston Center
12:33PM 41.1159 -73.5958 28° Northeast  Level FlightAware Approximate
12:33PM 41.0075 -73.6972 31° Northeast 264 304 9,700  Level Boston Center
12:34PM 41.2016 -73.5236 33° Northeast  Level FlightAware Approximate
12:34PM 41.0789 -73.6406 31° Northeast 279 321 11,400  Level Boston Center
12:35PM 41.2879 -73.4526 27° Northeast  Level FlightAware Approximate
12:35PM 41.1525 -73.5758 33° Northeast 308 354 13,200  Level Boston Center
12:36PM 41.2344 -73.5139 30° Northeast 323 372 15,000 1,740 Climbing Boston Center
12:37PM 41.3183 -73.4461 31° Northeast 338 389 16,700 960 Climbing Boston Center
12:38PM 41.4025 -73.3756 32° Northeast 349 402 17,000 120 Climbing Boston Center
12:39PM 41.4925 -73.3019 31° Northeast 369 425 17,000  Level Boston Center
12:40PM 41.5619 -73.2086 45° Northeast 375 432 17,000  Level Boston Center
12:41PM 41.6461 -73.1014 44° Northeast 375 432 17,000  Level Boston Center
12:42PM 41.7297 -73.0408 28° Northeast 375 432 17,000  Level Boston Center
12:43PM 41.8281 -72.9667 29° Northeast 369 425 17,000  Level Boston Center
12:44PM 41.9139 -72.9172 23° Northeast 369 425 17,000  Level Boston Center
12:45PM 42.0036 -72.8536 28° Northeast 369 425 17,000  Level Boston Center
12:46PM 42.0956 -72.7869 28° Northeast 369 425 17,000  Level Boston Center
12:47PM 42.1978 -72.7147 28° Northeast 369 425 17,000  Level Boston Center
12:48PM 42.2919 -72.6506 27° Northeast 369 425 17,000  Level Boston Center
12:49PM 42.3753 -72.5919 27° Northeast 369 425 17,000  Level Boston Center
12:50PM 42.4692 -72.5272 27° Northeast 369 425 17,000 -300 Level Boston Center
12:51PM 42.5608 -72.4597 28° Northeast 369 425 16,400 -900 Descending Boston Center
12:52PM 42.6525 -72.3950 27° Northeast 369 425 15,200 -1,260 Descending Boston Center
12:53PM 42.7400 -72.3328 28° Northeast 364 419 13,900 -1,320 Descending Boston Center
12:54PM 42.7961 -72.2308 53° Northeast 333 383 12,600 -1,440 Descending Boston Center
12:55PM 42.8272 -72.0947 73° East 327 376 11,100 -1,260 Descending Boston Center
12:56PM 42.8622 -72.0011 63° Northeast 324 373 10,100 -1,320 Descending Boston Center
12:57PM 42.9014 -71.8958 63° Northeast 292 336 8,500 -1,200 Descending Boston Center
12:58PM 42.9322 -71.8161 62° Northeast 272 313 7,800 -1,140 Descending Boston Center
12:59PM 42.9692 -71.7194 62° Northeast 261 300 6,300 -1,440 Descending Boston Center
01:00PM 42.9958 -71.6481 63° Northeast 239 275 5,000 -1,320 Descending Boston Center